Pagrindinis puslapis
METAR-TAF:

METAR-TAF

Oro uostai :

Kingstonas, Jamaika

platuma: 17-56N, ilguma: 076-47W, Aukštis: 3 m

Dabartinis oras

Ataskaita buvo paskelbta 55 minutes, ne 03:00 UTC
Vėjas 13 kt iš Pietryčių
Temperatūra 31°C
Drėgmė 63%
Slėgis 1016 hPa
Matomumas 10 km arba daugiau
Mažai debesys ne aukštis 2200 ft

METAR: MKJP 240300Z 13013KT 9999 FEW022 31/23 Q1016

Laikas: 22:55 (03:55 UTC)

Prognozė

Ataskaita buvo paskelbta 4 valandos ir 40 minutes, ne 23:15 UTC
Prognozė galioja nuo 24 metu 00 UTC su 24 metu 24 UTC
Vėjas 15 kt iš Pietryčių
Matomumas 10 km arba daugiau
Mažai debesys ne aukštis 2200 ft
Tapsmas
nuo 24 metu 03 UTC su 24 metu 05 UTC
Vėjas 7 kt iš Šiaurės
Tapsmas
nuo 24 metu 14 UTC su 24 metu 16 UTC
Vėjas 20 kt iš Pietryčių

TAF: MKJP 232315Z 2400/2424 13015KT 9999 FEW022 BECMG 2403/2405 35007KT BECMG 2414/2416 14020KT

Orai ataskaitas ir orų prognozės (METAR, TAF).

turimą stotys yra geltonos ir raudonos taškus žemėlapyje.

Perkelti pele per norėdami pamatyti stoties vardą.

Tada spustelėkite, norėdami matyti oro stebėjimo ir prognozės.

Norėdami pakeisti žemėlapį: spustelėkite ant žalios mygtukų su juodo kryžiaus žemyn,; žalią mygtuką su brūkšneliu, jei norite nutolinti; arba žalių rodyklių gretimoms žemėlapius.


METAR-TAF: